sensor_id;sensor_type;location;lat;lon;timestamp;P1;durP1;ratioP1;P2;durP2;ratioP2
9809;SDS011;4944;52.514;13.192;2023-08-08T02:32:47;1.63;;;1.47;;
9809;SDS011;4944;52.514;13.192;2023-08-08T02:35:14;2.63;;;2.03;;
9809;SDS011;4944;52.514;13.192;2023-08-08T02:37:41;3.37;;;1.63;;
9809;SDS011;4944;52.514;13.192;2023-08-08T02:40:08;1.87;;;1.77;;
9809;SDS011;4944;52.514;13.192;2023-08-08T02:42:35;3.00;;;1.90;;
9809;SDS011;4944;52.514;13.192;2023-08-08T02:45:03;2.37;;;1.70;;
9809;SDS011;4944;52.514;13.192;2023-08-08T02:47:30;3.57;;;1.60;;
9809;SDS011;4944;52.514;13.192;2023-08-08T02:49:59;3.73;;;1.70;;
9809;SDS011;4944;52.514;13.192;2023-08-08T02:52:25;4.60;;;1.60;;
9809;SDS011;4944;52.514;13.192;2023-08-08T02:54:52;2.20;;;1.60;;
9809;SDS011;4944;52.514;13.192;2023-08-08T02:57:19;3.27;;;2.03;;
9809;SDS011;4944;52.514;13.192;2023-08-08T02:59:46;4.10;;;1.70;;
9809;SDS011;4944;52.514;13.192;2023-08-08T03:02:13;4.27;;;2.00;;
9809;SDS011;4944;52.514;13.192;2023-08-08T03:04:40;4.03;;;1.93;;
9809;SDS011;4944;52.514;13.192;2023-08-08T03:07:08;3.53;;;2.20;;
9809;SDS011;4944;52.514;13.192;2023-08-08T03:09:35;5.13;;;1.97;;
9809;SDS011;4944;52.514;13.192;2023-08-08T03:12:02;2.73;;;1.80;;
9809;SDS011;4944;52.514;13.192;2023-08-08T03:14:29;4.73;;;2.10;;
9809;SDS011;4944;52.514;13.192;2023-08-08T03:16:56;2.30;;;1.73;;
9809;SDS011;4944;52.514;13.192;2023-08-08T03:19:23;2.33;;;1.90;;
9809;SDS011;4944;52.514;13.192;2023-08-08T03:21:50;3.07;;;1.77;;
9809;SDS011;4944;52.514;13.192;2023-08-08T03:24:18;2.73;;;1.83;;
9809;SDS011;4944;52.514;13.192;2023-08-08T03:26:45;4.33;;;1.93;;
9809;SDS011;4944;52.514;13.192;2023-08-08T03:29:12;4.33;;;2.40;;
9809;SDS011;4944;52.514;13.192;2023-08-08T03:31:39;3.37;;;1.83;;
9809;SDS011;4944;52.514;13.192;2023-08-08T03:34:06;5.00;;;2.03;;
9809;SDS011;4944;52.514;13.192;2023-08-08T03:36:33;2.20;;;1.93;;
9809;SDS011;4944;52.514;13.192;2023-08-08T03:39:00;3.37;;;2.10;;
9809;SDS011;4944;52.514;13.192;2023-08-08T03:41:29;7.10;;;1.83;;
9809;SDS011;4944;52.514;13.192;2023-08-08T03:43:56;2.00;;;1.90;;
9809;SDS011;4944;52.514;13.192;2023-08-08T03:46:23;2.27;;;2.03;;
9809;SDS011;4944;52.514;13.192;2023-08-08T03:48:50;2.70;;;1.93;;
9809;SDS011;4944;52.514;13.192;2023-08-08T03:51:17;4.87;;;2.30;;
9809;SDS011;4944;52.514;13.192;2023-08-08T03:53:44;2.60;;;1.83;;
9809;SDS011;4944;52.514;13.192;2023-08-08T03:56:11;3.70;;;2.23;;
9809;SDS011;4944;52.514;13.192;2023-08-08T03:58:39;3.50;;;2.37;;
9809;SDS011;4944;52.514;13.192;2023-08-08T04:01:06;4.57;;;2.40;;
9809;SDS011;4944;52.514;13.192;2023-08-08T04:03:32;3.37;;;1.90;;
9809;SDS011;4944;52.514;13.192;2023-08-08T04:05:59;2.37;;;1.90;;
9809;SDS011;4944;52.514;13.192;2023-08-08T04:08:26;2.33;;;2.10;;
9809;SDS011;4944;52.514;13.192;2023-08-08T04:10:53;2.67;;;2.43;;
9809;SDS011;4944;52.514;13.192;2023-08-08T04:13:20;3.57;;;1.70;;
9809;SDS011;4944;52.514;13.192;2023-08-08T04:15:48;3.03;;;1.80;;
9809;SDS011;4944;52.514;13.192;2023-08-08T04:18:16;2.77;;;2.10;;
9809;SDS011;4944;52.514;13.192;2023-08-08T04:20:44;3.03;;;1.73;;
9809;SDS011;4944;52.514;13.192;2023-08-08T04:23:12;3.07;;;1.97;;
9809;SDS011;4944;52.514;13.192;2023-08-08T04:25:39;2.77;;;1.80;;
9809;SDS011;4944;52.514;13.192;2023-08-08T04:28:05;2.73;;;2.07;;
9809;SDS011;4944;52.514;13.192;2023-08-08T04:30:32;4.60;;;2.03;;
9809;SDS011;4944;52.514;13.192;2023-08-08T04:33:01;3.33;;;2.00;;
9809;SDS011;4944;52.514;13.192;2023-08-08T04:35:28;3.30;;;1.80;;
9809;SDS011;4944;52.514;13.192;2023-08-08T04:37:55;2.17;;;2.00;;
9809;SDS011;4944;52.514;13.192;2023-08-08T04:40:22;3.13;;;2.00;;
9809;SDS011;4944;52.514;13.192;2023-08-08T04:42:49;2.17;;;1.70;;
9809;SDS011;4944;52.514;13.192;2023-08-08T04:45:18;3.80;;;2.00;;
9809;SDS011;4944;52.514;13.192;2023-08-08T04:47:46;2.47;;;1.90;;
9809;SDS011;4944;52.514;13.192;2023-08-08T04:50:14;3.47;;;1.90;;
9809;SDS011;4944;52.514;13.192;2023-08-08T04:52:41;3.23;;;2.10;;
9809;SDS011;4944;52.514;13.192;2023-08-08T04:55:08;2.83;;;1.77;;
9809;SDS011;4944;52.514;13.192;2023-08-08T04:57:35;2.80;;;1.70;;
9809;SDS011;4944;52.514;13.192;2023-08-08T05:00:02;2.53;;;2.00;;
9809;SDS011;4944;52.514;13.192;2023-08-08T05:02:33;3.63;;;1.90;;
9809;SDS011;4944;52.514;13.192;2023-08-08T05:05:00;2.33;;;1.80;;
9809;SDS011;4944;52.514;13.192;2023-08-08T05:07:28;1.93;;;1.73;;
9809;SDS011;4944;52.514;13.192;2023-08-08T05:09:55;2.47;;;1.90;;
9809;SDS011;4944;52.514;13.192;2023-08-08T05:12:22;1.93;;;1.80;;
9809;SDS011;4944;52.514;13.192;2023-08-08T05:14:49;3.40;;;2.27;;
9809;SDS011;4944;52.514;13.192;2023-08-08T05:17:15;2.77;;;1.73;;
9809;SDS011;4944;52.514;13.192;2023-08-08T05:19:42;4.03;;;1.83;;
9809;SDS011;4944;52.514;13.192;2023-08-08T05:22:09;2.43;;;1.90;;
9809;SDS011;4944;52.514;13.192;2023-08-08T05:24:37;3.90;;;1.83;;
9809;SDS011;4944;52.514;13.192;2023-08-08T05:27:04;2.33;;;2.00;;
9809;SDS011;4944;52.514;13.192;2023-08-08T05:29:31;1.87;;;1.70;;
9809;SDS011;4944;52.514;13.192;2023-08-08T05:31:59;1.63;;;1.53;;
9809;SDS011;4944;52.514;13.192;2023-08-08T05:34:26;3.20;;;1.77;;
9809;SDS011;4944;52.514;13.192;2023-08-08T05:36:53;2.83;;;2.00;;
9809;SDS011;4944;52.514;13.192;2023-08-08T05:39:19;4.10;;;1.97;;
9809;SDS011;4944;52.514;13.192;2023-08-08T05:41:48;3.20;;;1.80;;
9809;SDS011;4944;52.514;13.192;2023-08-08T05:44:15;1.80;;;1.70;;
9809;SDS011;4944;52.514;13.192;2023-08-08T05:46:41;1.83;;;1.67;;
9809;SDS011;4944;52.514;13.192;2023-08-08T05:49:08;2.00;;;1.70;;
9809;SDS011;4944;52.514;13.192;2023-08-08T05:51:35;2.77;;;1.60;;
9809;SDS011;4944;52.514;13.192;2023-08-08T05:54:02;3.10;;;1.80;;
9809;SDS011;4944;52.514;13.192;2023-08-08T05:56:34;4.43;;;2.00;;
9809;SDS011;4944;52.514;13.192;2023-08-08T05:59:03;2.50;;;1.90;;
9809;SDS011;4944;52.514;13.192;2023-08-08T06:01:30;2.23;;;2.00;;
9809;SDS011;4944;52.514;13.192;2023-08-08T06:03:57;2.47;;;2.00;;
9809;SDS011;4944;52.514;13.192;2023-08-08T06:06:24;2.03;;;1.70;;
9809;SDS011;4944;52.514;13.192;2023-08-08T06:08:51;3.17;;;2.10;;
9809;SDS011;4944;52.514;13.192;2023-08-08T06:11:18;4.80;;;2.30;;
9809;SDS011;4944;52.514;13.192;2023-08-08T06:13:46;6.70;;;2.10;;
9809;SDS011;4944;52.514;13.192;2023-08-08T06:16:15;3.90;;;2.30;;
9809;SDS011;4944;52.514;13.192;2023-08-08T06:18:43;3.53;;;2.33;;
9809;SDS011;4944;52.514;13.192;2023-08-08T06:21:10;2.10;;;1.93;;
9809;SDS011;4944;52.514;13.192;2023-08-08T06:23:37;1.90;;;1.80;;
9809;SDS011;4944;52.514;13.192;2023-08-08T06:26:04;4.97;;;1.90;;
9809;SDS011;4944;52.514;13.192;2023-08-08T06:28:31;2.13;;;1.83;;
9809;SDS011;4944;52.514;13.192;2023-08-08T06:30:58;3.13;;;2.10;;
9809;SDS011;4944;52.514;13.192;2023-08-08T06:33:26;3.83;;;2.27;;
9809;SDS011;4944;52.514;13.192;2023-08-08T06:35:53;2.10;;;1.80;;
9809;SDS011;4944;52.514;13.192;2023-08-08T06:38:22;3.00;;;1.80;;
9809;SDS011;4944;52.514;13.192;2023-08-08T06:40:48;4.03;;;2.17;;
9809;SDS011;4944;52.514;13.192;2023-08-08T06:43:16;1.93;;;1.73;;
9809;SDS011;4944;52.514;13.192;2023-08-08T06:45:43;2.57;;;2.07;;
9809;SDS011;4944;52.514;13.192;2023-08-08T06:48:10;3.27;;;2.13;;
9809;SDS011;4944;52.514;13.192;2023-08-08T06:50:38;3.93;;;2.00;;
9809;SDS011;4944;52.514;13.192;2023-08-08T06:53:05;2.60;;;1.93;;
9809;SDS011;4944;52.514;13.192;2023-08-08T06:55:32;2.70;;;1.90;;
9809;SDS011;4944;52.514;13.192;2023-08-08T06:57:59;2.40;;;2.17;;
9809;SDS011;4944;52.514;13.192;2023-08-08T07:00:25;3.87;;;1.97;;
9809;SDS011;4944;52.514;13.192;2023-08-08T07:02:53;3.60;;;1.93;;
9809;SDS011;4944;52.514;13.192;2023-08-08T07:05:20;2.87;;;2.10;;
9809;SDS011;4944;52.514;13.192;2023-08-08T07:07:49;2.13;;;1.90;;
9809;SDS011;4944;52.514;13.192;2023-08-08T07:10:16;1.90;;;1.80;;
9809;SDS011;4944;52.514;13.192;2023-08-08T07:12:43;4.13;;;2.10;;
9809;SDS011;4944;52.514;13.192;2023-08-08T07:15:10;1.80;;;1.70;;
9809;SDS011;4944;52.514;13.192;2023-08-08T07:17:37;3.87;;;2.10;;
9809;SDS011;4944;52.514;13.192;2023-08-08T07:20:04;1.90;;;1.80;;
9809;SDS011;4944;52.514;13.192;2023-08-08T07:22:32;2.90;;;1.73;;
9809;SDS011;4944;52.514;13.192;2023-08-08T07:25:01;2.97;;;1.93;;
9809;SDS011;4944;52.514;13.192;2023-08-08T07:27:29;1.90;;;1.80;;
9809;SDS011;4944;52.514;13.192;2023-08-08T07:29:56;5.23;;;1.90;;
9809;SDS011;4944;52.514;13.192;2023-08-08T07:32:24;3.57;;;2.13;;
9809;SDS011;4944;52.514;13.192;2023-08-08T07:34:51;2.57;;;1.90;;
9809;SDS011;4944;52.514;13.192;2023-08-08T07:37:17;3.33;;;2.10;;
9809;SDS011;4944;52.514;13.192;2023-08-08T07:39:44;1.97;;;1.73;;
9809;SDS011;4944;52.514;13.192;2023-08-08T07:42:12;1.60;;;1.50;;
9809;SDS011;4944;52.514;13.192;2023-08-08T07:44:39;4.00;;;1.90;;
9809;SDS011;4944;52.514;13.192;2023-08-08T07:47:06;3.67;;;2.07;;
9809;SDS011;4944;52.514;13.192;2023-08-08T07:49:33;2.23;;;1.70;;
9809;SDS011;4944;52.514;13.192;2023-08-08T07:52:00;2.10;;;1.80;;
9809;SDS011;4944;52.514;13.192;2023-08-08T07:54:27;4.50;;;2.00;;
9809;SDS011;4944;52.514;13.192;2023-08-08T07:56:54;2.63;;;1.80;;
9809;SDS011;4944;52.514;13.192;2023-08-08T07:59:22;1.77;;;1.67;;
9809;SDS011;4944;52.514;13.192;2023-08-08T08:01:49;2.50;;;1.90;;
9809;SDS011;4944;52.514;13.192;2023-08-08T08:04:16;3.27;;;2.17;;
9809;SDS011;4944;52.514;13.192;2023-08-08T08:06:43;2.43;;;1.80;;
9809;SDS011;4944;52.514;13.192;2023-08-08T08:09:12;2.80;;;2.07;;
9809;SDS011;4944;52.514;13.192;2023-08-08T08:11:39;3.80;;;1.90;;
9809;SDS011;4944;52.514;13.192;2023-08-08T08:14:06;2.03;;;1.90;;
9809;SDS011;4944;52.514;13.192;2023-08-08T08:16:34;2.33;;;2.10;;
9809;SDS011;4944;52.514;13.192;2023-08-08T08:19:01;3.80;;;1.73;;
9809;SDS011;4944;52.514;13.192;2023-08-08T08:21:28;3.40;;;1.90;;
9809;SDS011;4944;52.514;13.192;2023-08-08T08:23:55;1.70;;;1.60;;
9809;SDS011;4944;52.514;13.192;2023-08-08T08:26:22;2.80;;;2.00;;
9809;SDS011;4944;52.514;13.192;2023-08-08T08:28:49;2.70;;;1.90;;
9809;SDS011;4944;52.514;13.192;2023-08-08T08:31:16;2.13;;;1.70;;
9809;SDS011;4944;52.514;13.192;2023-08-08T08:33:44;3.10;;;1.83;;
9809;SDS011;4944;52.514;13.192;2023-08-08T08:36:12;3.00;;;1.70;;
9809;SDS011;4944;52.514;13.192;2023-08-08T08:38:39;2.50;;;1.50;;
9809;SDS011;4944;52.514;13.192;2023-08-08T08:41:06;5.67;;;2.10;;
9809;SDS011;4944;52.514;13.192;2023-08-08T08:43:35;1.90;;;1.70;;
9809;SDS011;4944;52.514;13.192;2023-08-08T08:46:02;2.97;;;2.00;;
9809;SDS011;4944;52.514;13.192;2023-08-08T08:48:30;3.20;;;2.00;;
9809;SDS011;4944;52.514;13.192;2023-08-08T08:50:58;2.40;;;1.77;;
9809;SDS011;4944;52.514;13.192;2023-08-08T08:53:25;2.10;;;1.90;;
9809;SDS011;4944;52.514;13.192;2023-08-08T08:55:52;1.93;;;1.83;;
9809;SDS011;4944;52.514;13.192;2023-08-08T08:58:22;3.70;;;1.90;;
9809;SDS011;4944;52.514;13.192;2023-08-08T09:00:50;4.47;;;1.70;;
9809;SDS011;4944;52.514;13.192;2023-08-08T09:03:17;1.57;;;1.47;;
9809;SDS011;4944;52.514;13.192;2023-08-08T09:05:45;4.80;;;2.17;;
9809;SDS011;4944;52.514;13.192;2023-08-08T09:08:14;2.87;;;1.80;;
9809;SDS011;4944;52.514;13.192;2023-08-08T09:10:41;2.27;;;2.07;;
9809;SDS011;4944;52.514;13.192;2023-08-08T09:13:08;3.23;;;1.93;;
9809;SDS011;4944;52.514;13.192;2023-08-08T09:15:35;1.93;;;1.73;;
9809;SDS011;4944;52.514;13.192;2023-08-08T09:18:02;2.40;;;2.10;;
9809;SDS011;4944;52.514;13.192;2023-08-08T09:20:29;5.03;;;2.10;;
9809;SDS011;4944;52.514;13.192;2023-08-08T09:22:56;1.80;;;1.70;;
9809;SDS011;4944;52.514;13.192;2023-08-08T09:25:25;3.50;;;1.97;;
9809;SDS011;4944;52.514;13.192;2023-08-08T09:27:53;3.17;;;2.00;;
9809;SDS011;4944;52.514;13.192;2023-08-08T09:30:20;1.93;;;1.77;;
9809;SDS011;4944;52.514;13.192;2023-08-08T09:32:47;2.00;;;1.73;;
9809;SDS011;4944;52.514;13.192;2023-08-08T09:35:14;2.50;;;2.10;;
9809;SDS011;4944;52.514;13.192;2023-08-08T09:37:41;2.90;;;1.77;;
9809;SDS011;4944;52.514;13.192;2023-08-08T09:40:08;2.10;;;1.90;;
9809;SDS011;4944;52.514;13.192;2023-08-08T09:42:37;2.00;;;1.80;;
9809;SDS011;4944;52.514;13.192;2023-08-08T09:45:07;3.10;;;2.10;;
9809;SDS011;4944;52.514;13.192;2023-08-08T09:47:35;1.83;;;1.70;;
9809;SDS011;4944;52.514;13.192;2023-08-08T09:50:03;4.17;;;1.80;;
9809;SDS011;4944;52.514;13.192;2023-08-08T09:52:31;3.13;;;1.50;;
9809;SDS011;4944;52.514;13.192;2023-08-08T09:55:00;5.60;;;2.03;;
9809;SDS011;4944;52.514;13.192;2023-08-08T09:57:27;1.93;;;1.43;;
9809;SDS011;4944;52.514;13.192;2023-08-08T09:59:56;2.73;;;1.70;;
9809;SDS011;4944;52.514;13.192;2023-08-08T10:02:24;3.13;;;2.10;;
9809;SDS011;4944;52.514;13.192;2023-08-08T10:04:51;2.10;;;1.90;;
9809;SDS011;4944;52.514;13.192;2023-08-08T10:07:20;4.33;;;1.80;;
9809;SDS011;4944;52.514;13.192;2023-08-08T10:09:48;1.87;;;1.77;;
9809;SDS011;4944;52.514;13.192;2023-08-08T10:12:15;2.70;;;2.37;;
9809;SDS011;4944;52.514;13.192;2023-08-08T10:14:42;3.30;;;2.10;;
9809;SDS011;4944;52.514;13.192;2023-08-08T10:17:14;2.13;;;1.93;;
9809;SDS011;4944;52.514;13.192;2023-08-08T10:19:49;2.70;;;1.60;;
9809;SDS011;4944;52.514;13.192;2023-08-08T10:22:19;2.60;;;1.63;;
9809;SDS011;4944;52.514;13.192;2023-08-08T10:24:50;2.90;;;2.00;;
9809;SDS011;4944;52.514;13.192;2023-08-08T10:27:26;1.80;;;1.70;;
9809;SDS011;4944;52.514;13.192;2023-08-08T10:30:00;4.30;;;2.00;;
9809;SDS011;4944;52.514;13.192;2023-08-08T10:32:37;1.53;;;1.43;;
9809;SDS011;4944;52.514;13.192;2023-08-08T10:35:05;2.30;;;1.53;;
9809;SDS011;4944;52.514;13.192;2023-08-08T10:37:33;1.57;;;1.47;;
9809;SDS011;4944;52.514;13.192;2023-08-08T10:40:01;3.43;;;1.80;;
9809;SDS011;4944;52.514;13.192;2023-08-08T10:42:31;1.67;;;1.53;;
9809;SDS011;4944;52.514;13.192;2023-08-08T10:44:58;2.63;;;2.00;;
9809;SDS011;4944;52.514;13.192;2023-08-08T10:47:26;1.90;;;1.80;;
9809;SDS011;4944;52.514;13.192;2023-08-08T10:50:02;1.67;;;1.57;;
9809;SDS011;4944;52.514;13.192;2023-08-08T10:52:30;1.57;;;1.47;;
9809;SDS011;4944;52.514;13.192;2023-08-08T10:55:00;1.63;;;1.50;;
9809;SDS011;4944;52.514;13.192;2023-08-08T10:57:28;2.23;;;1.70;;
9809;SDS011;4944;52.514;13.192;2023-08-08T11:00:15;1.70;;;1.50;;
9809;SDS011;4944;52.514;13.192;2023-08-08T11:02:43;1.50;;;1.40;;
9809;SDS011;4944;52.514;13.192;2023-08-08T11:05:12;1.70;;;1.60;;
9809;SDS011;4944;52.514;13.192;2023-08-08T11:07:41;2.93;;;1.80;;
9809;SDS011;4944;52.514;13.192;2023-08-08T11:10:09;3.43;;;1.57;;
9809;SDS011;4944;52.514;13.192;2023-08-08T11:12:36;3.67;;;1.30;;
9809;SDS011;4944;52.514;13.192;2023-08-08T11:15:03;2.83;;;1.10;;
9809;SDS011;4944;52.514;13.192;2023-08-08T11:17:31;1.33;;;1.00;;
9809;SDS011;4944;52.514;13.192;2023-08-08T11:19:58;1.17;;;1.17;;
9809;SDS011;4944;52.514;13.192;2023-08-08T11:22:28;1.20;;;1.20;;
9809;SDS011;4944;52.514;13.192;2023-08-08T11:24:54;1.87;;;1.10;;
9809;SDS011;4944;52.514;13.192;2023-08-08T11:27:27;1.17;;;1.07;;
9809;SDS011;4944;52.514;13.192;2023-08-08T11:29:55;4.23;;;1.23;;
9809;SDS011;4944;52.514;13.192;2023-08-08T11:32:22;1.13;;;1.10;;
9809;SDS011;4944;52.514;13.192;2023-08-08T11:34:50;1.80;;;1.33;;
9809;SDS011;4944;52.514;13.192;2023-08-08T11:37:17;1.50;;;1.20;;
9809;SDS011;4944;52.514;13.192;2023-08-08T11:39:46;3.40;;;1.60;;
9809;SDS011;4944;52.514;13.192;2023-08-08T11:42:13;1.80;;;1.70;;
9809;SDS011;4944;52.514;13.192;2023-08-08T11:44:40;1.80;;;1.70;;
9809;SDS011;4944;52.514;13.192;2023-08-08T11:47:08;2.40;;;2.20;;
9809;SDS011;4944;52.514;13.192;2023-08-08T11:49:39;2.07;;;1.87;;
9809;SDS011;4944;52.514;13.192;2023-08-08T11:52:07;3.10;;;1.70;;
9809;SDS011;4944;52.514;13.192;2023-08-08T11:54:36;1.93;;;1.70;;
9809;SDS011;4944;52.514;13.192;2023-08-08T11:57:05;2.37;;;2.10;;
9809;SDS011;4944;52.514;13.192;2023-08-08T11:59:32;1.70;;;1.60;;
9809;SDS011;4944;52.514;13.192;2023-08-08T12:01:59;2.80;;;2.03;;
9809;SDS011;4944;52.514;13.192;2023-08-08T12:04:26;1.90;;;1.80;;
9809;SDS011;4944;52.514;13.192;2023-08-08T12:07:00;2.20;;;2.00;;
9809;SDS011;4944;52.514;13.192;2023-08-08T12:09:28;1.83;;;1.60;;
9809;SDS011;4944;52.514;13.192;2023-08-08T12:11:58;4.07;;;2.00;;
9809;SDS011;4944;52.514;13.192;2023-08-08T12:14:27;3.77;;;1.70;;
9809;SDS011;4944;52.514;13.192;2023-08-08T12:16:54;2.10;;;1.90;;
9809;SDS011;4944;52.514;13.192;2023-08-08T12:19:22;1.90;;;1.80;;
9809;SDS011;4944;52.514;13.192;2023-08-08T12:21:50;2.20;;;2.00;;
9809;SDS011;4944;52.514;13.192;2023-08-08T12:24:18;1.80;;;1.70;;
9809;SDS011;4944;52.514;13.192;2023-08-08T12:26:44;2.87;;;1.87;;
9809;SDS011;4944;52.514;13.192;2023-08-08T12:29:11;3.73;;;2.20;;
9809;SDS011;4944;52.514;13.192;2023-08-08T12:31:40;2.73;;;1.83;;
9809;SDS011;4944;52.514;13.192;2023-08-08T12:34:07;4.80;;;2.00;;
9809;SDS011;4944;52.514;13.192;2023-08-08T12:36:34;1.93;;;1.80;;
9809;SDS011;4944;52.514;13.192;2023-08-08T12:39:01;1.90;;;1.77;;
9809;SDS011;4944;52.514;13.192;2023-08-08T12:41:28;1.73;;;1.63;;
9809;SDS011;4944;52.514;13.192;2023-08-08T12:43:55;3.97;;;1.97;;
9809;SDS011;4944;52.514;13.192;2023-08-08T12:46:22;1.80;;;1.60;;
9809;SDS011;4944;52.514;13.192;2023-08-08T12:48:50;3.53;;;2.07;;
9809;SDS011;4944;52.514;13.192;2023-08-08T12:51:17;2.43;;;1.87;;
9809;SDS011;4944;52.514;13.192;2023-08-08T12:53:44;1.57;;;1.40;;
9809;SDS011;4944;52.514;13.192;2023-08-08T12:56:11;2.27;;;1.33;;
9809;SDS011;4944;52.514;13.192;2023-08-08T12:58:38;1.40;;;1.30;;
9809;SDS011;4944;52.514;13.192;2023-08-08T13:01:06;2.60;;;1.50;;
9809;SDS011;4944;52.514;13.192;2023-08-08T13:03:33;3.87;;;1.37;;
9809;SDS011;4944;52.514;13.192;2023-08-08T13:06:01;2.77;;;1.30;;
9809;SDS011;4944;52.514;13.192;2023-08-08T13:08:29;2.30;;;1.60;;
9809;SDS011;4944;52.514;13.192;2023-08-08T13:10:57;2.73;;;1.83;;
9809;SDS011;4944;52.514;13.192;2023-08-08T13:13:24;1.90;;;1.70;;
9809;SDS011;4944;52.514;13.192;2023-08-08T13:15:51;2.13;;;1.63;;
9809;SDS011;4944;52.514;13.192;2023-08-08T13:18:18;3.07;;;1.90;;
9809;SDS011;4944;52.514;13.192;2023-08-08T13:20:45;4.00;;;1.83;;
9809;SDS011;4944;52.514;13.192;2023-08-08T13:23:13;3.73;;;1.97;;
9809;SDS011;4944;52.514;13.192;2023-08-08T13:25:40;1.83;;;1.50;;
9809;SDS011;4944;52.514;13.192;2023-08-08T13:28:08;5.13;;;1.43;;
9809;SDS011;4944;52.514;13.192;2023-08-08T13:30:35;2.87;;;1.70;;
9809;SDS011;4944;52.514;13.192;2023-08-08T13:33:01;2.43;;;1.60;;
9809;SDS011;4944;52.514;13.192;2023-08-08T13:35:29;2.00;;;1.33;;
9809;SDS011;4944;52.514;13.192;2023-08-08T13:37:56;2.60;;;1.40;;
9809;SDS011;4944;52.514;13.192;2023-08-08T13:40:24;2.40;;;1.47;;
9809;SDS011;4944;52.514;13.192;2023-08-08T13:42:51;1.50;;;1.40;;
9809;SDS011;4944;52.514;13.192;2023-08-08T13:45:18;16.00;;;1.87;;
9809;SDS011;4944;52.514;13.192;2023-08-08T13:47:47;1.43;;;1.33;;
9809;SDS011;4944;52.514;13.192;2023-08-08T13:50:15;2.27;;;1.50;;
9809;SDS011;4944;52.514;13.192;2023-08-08T13:52:42;3.00;;;1.77;;
9809;SDS011;4944;52.514;13.192;2023-08-08T13:55:09;1.70;;;1.60;;
9809;SDS011;4944;52.514;13.192;2023-08-08T13:57:37;2.03;;;1.63;;
9809;SDS011;4944;52.514;13.192;2023-08-08T14:00:05;4.93;;;1.53;;
9809;SDS011;4944;52.514;13.192;2023-08-08T14:02:35;2.27;;;1.40;;
9809;SDS011;4944;52.514;13.192;2023-08-08T14:05:03;1.53;;;1.43;;
9809;SDS011;4944;52.514;13.192;2023-08-08T14:07:31;1.90;;;1.53;;
9809;SDS011;4944;52.514;13.192;2023-08-08T14:10:00;2.33;;;1.40;;
9809;SDS011;4944;52.514;13.192;2023-08-08T14:12:27;1.60;;;1.30;;
9809;SDS011;4944;52.514;13.192;2023-08-08T14:14:55;2.37;;;1.80;;
9809;SDS011;4944;52.514;13.192;2023-08-08T14:17:22;1.40;;;1.30;;
9809;SDS011;4944;52.514;13.192;2023-08-08T14:19:49;1.97;;;1.43;;
9809;SDS011;4944;52.514;13.192;2023-08-08T14:22:15;1.80;;;1.70;;
9809;SDS011;4944;52.514;13.192;2023-08-08T14:24:42;1.50;;;1.40;;
9809;SDS011;4944;52.514;13.192;2023-08-08T14:27:10;3.80;;;1.77;;
9809;SDS011;4944;52.514;13.192;2023-08-08T14:29:37;1.80;;;1.70;;
9809;SDS011;4944;52.514;13.192;2023-08-08T14:32:06;1.70;;;1.60;;
9809;SDS011;4944;52.514;13.192;2023-08-08T14:34:33;3.13;;;1.70;;
9809;SDS011;4944;52.514;13.192;2023-08-08T14:37:02;1.60;;;1.50;;
9809;SDS011;4944;52.514;13.192;2023-08-08T14:39:29;2.07;;;1.80;;
9809;SDS011;4944;52.514;13.192;2023-08-08T14:41:56;2.43;;;1.63;;
9809;SDS011;4944;52.514;13.192;2023-08-08T14:44:23;3.30;;;1.60;;
9809;SDS011;4944;52.514;13.192;2023-08-08T14:46:52;2.10;;;1.70;;
9809;SDS011;4944;52.514;13.192;2023-08-08T14:49:20;2.07;;;1.80;;
9809;SDS011;4944;52.514;13.192;2023-08-08T14:51:47;3.57;;;1.57;;
9809;SDS011;4944;52.514;13.192;2023-08-08T14:54:14;3.37;;;1.70;;
9809;SDS011;4944;52.514;13.192;2023-08-08T14:56:41;1.70;;;1.60;;
9809;SDS011;4944;52.514;13.192;2023-08-08T14:59:08;1.97;;;1.60;;
9809;SDS011;4944;52.514;13.192;2023-08-08T15:01:35;1.90;;;1.60;;
9809;SDS011;4944;52.514;13.192;2023-08-08T15:04:02;1.97;;;1.43;;
9809;SDS011;4944;52.514;13.192;2023-08-08T15:06:30;1.03;;;1.00;;
9809;SDS011;4944;52.514;13.192;2023-08-08T15:08:58;1.70;;;1.07;;
9809;SDS011;4944;52.514;13.192;2023-08-08T15:11:26;2.73;;;1.17;;
9809;SDS011;4944;52.514;13.192;2023-08-08T15:13:52;0.97;;;0.90;;
9809;SDS011;4944;52.514;13.192;2023-08-08T15:16:19;1.73;;;0.90;;
9809;SDS011;4944;52.514;13.192;2023-08-08T15:18:46;2.73;;;1.20;;
9809;SDS011;4944;52.514;13.192;2023-08-08T15:21:13;3.33;;;1.37;;
9809;SDS011;4944;52.514;13.192;2023-08-08T15:23:45;0.80;;;0.70;;
9809;SDS011;4944;52.514;13.192;2023-08-08T15:26:14;1.43;;;1.30;;
9809;SDS011;4944;52.514;13.192;2023-08-08T15:28:46;7.73;;;2.03;;
9809;SDS011;4944;52.514;13.192;2023-08-08T15:31:13;2.07;;;1.27;;
9809;SDS011;4944;52.514;13.192;2023-08-08T15:33:41;2.00;;;1.00;;
9809;SDS011;4944;52.514;13.192;2023-08-08T15:36:08;1.20;;;1.10;;
9809;SDS011;4944;52.514;13.192;2023-08-08T15:38:35;1.57;;;1.17;;
9809;SDS011;4944;52.514;13.192;2023-08-08T15:41:03;1.13;;;0.90;;
9809;SDS011;4944;52.514;13.192;2023-08-08T15:43:30;4.27;;;1.87;;
9809;SDS011;4944;52.514;13.192;2023-08-08T15:45:57;2.50;;;1.90;;
9809;SDS011;4944;52.514;13.192;2023-08-08T15:48:24;2.20;;;1.20;;
9809;SDS011;4944;52.514;13.192;2023-08-08T15:50:50;1.53;;;1.00;;
9809;SDS011;4944;52.514;13.192;2023-08-08T15:53:17;1.80;;;1.20;;
9809;SDS011;4944;52.514;13.192;2023-08-08T15:55:44;2.20;;;1.10;;
9809;SDS011;4944;52.514;13.192;2023-08-08T15:58:13;1.20;;;1.10;;
9809;SDS011;4944;52.514;13.192;2023-08-08T16:00:40;1.30;;;1.00;;
9809;SDS011;4944;52.514;13.192;2023-08-08T16:03:06;1.60;;;1.00;;
9809;SDS011;4944;52.514;13.192;2023-08-08T16:05:33;1.40;;;1.23;;
9809;SDS011;4944;52.514;13.192;2023-08-08T16:08:00;2.83;;;1.13;;
9809;SDS011;4944;52.514;13.192;2023-08-08T16:10:27;1.57;;;1.30;;
9809;SDS011;4944;52.514;13.192;2023-08-08T16:12:54;3.07;;;1.00;;
9809;SDS011;4944;52.514;13.192;2023-08-08T16:15:22;1.83;;;1.33;;
9809;SDS011;4944;52.514;13.192;2023-08-08T16:17:49;1.10;;;1.00;;
9809;SDS011;4944;52.514;13.192;2023-08-08T16:20:16;1.33;;;1.07;;
9809;SDS011;4944;52.514;13.192;2023-08-08T16:22:43;1.23;;;1.10;;
9809;SDS011;4944;52.514;13.192;2023-08-08T16:25:10;2.27;;;1.10;;
9809;SDS011;4944;52.514;13.192;2023-08-08T16:27:37;1.80;;;1.20;;
9809;SDS011;4944;52.514;13.192;2023-08-08T16:30:06;1.53;;;1.20;;
9809;SDS011;4944;52.514;13.192;2023-08-08T16:32:35;1.40;;;1.30;;
9809;SDS011;4944;52.514;13.192;2023-08-08T16:35:02;2.00;;;1.13;;
9809;SDS011;4944;52.514;13.192;2023-08-08T16:37:29;1.07;;;0.97;;
9809;SDS011;4944;52.514;13.192;2023-08-08T16:39:56;1.13;;;1.10;;
9809;SDS011;4944;52.514;13.192;2023-08-08T16:42:24;2.10;;;1.77;;
9809;SDS011;4944;52.514;13.192;2023-08-08T16:44:51;1.40;;;1.20;;
9809;SDS011;4944;52.514;13.192;2023-08-08T16:47:18;2.03;;;1.47;;
9809;SDS011;4944;52.514;13.192;2023-08-08T16:49:47;1.40;;;1.30;;
9809;SDS011;4944;52.514;13.192;2023-08-08T16:52:14;1.50;;;1.10;;
9809;SDS011;4944;52.514;13.192;2023-08-08T16:54:41;2.97;;;1.77;;
9809;SDS011;4944;52.514;13.192;2023-08-08T16:57:08;1.30;;;1.20;;
9809;SDS011;4944;52.514;13.192;2023-08-08T16:59:36;3.00;;;1.27;;
9809;SDS011;4944;52.514;13.192;2023-08-08T17:02:03;1.33;;;1.20;;
9809;SDS011;4944;52.514;13.192;2023-08-08T17:04:30;2.43;;;1.30;;
9809;SDS011;4944;52.514;13.192;2023-08-08T17:06:59;2.60;;;1.17;;
9809;SDS011;4944;52.514;13.192;2023-08-08T17:09:26;1.50;;;1.40;;
9809;SDS011;4944;52.514;13.192;2023-08-08T17:11:53;2.30;;;1.00;;
9809;SDS011;4944;52.514;13.192;2023-08-08T17:14:20;1.10;;;0.80;;
9809;SDS011;4944;52.514;13.192;2023-08-08T17:16:47;1.57;;;1.20;;
9809;SDS011;4944;52.514;13.192;2023-08-08T17:19:15;2.70;;;1.10;;
9809;SDS011;4944;52.514;13.192;2023-08-08T17:21:42;1.50;;;1.00;;
9809;SDS011;4944;52.514;13.192;2023-08-08T17:27:33;1.00;;;0.90;;
9809;SDS011;4944;52.514;13.192;2023-08-08T17:30:03;0.80;;;0.80;;
9809;SDS011;4944;52.514;13.192;2023-08-08T17:32:33;2.93;;;0.80;;
9809;SDS011;4944;52.514;13.192;2023-08-08T17:35:00;1.87;;;1.23;;
9809;SDS011;4944;52.514;13.192;2023-08-08T17:37:27;1.17;;;1.00;;